Time;durP1;ratioP1;P1;durP2;ratioP2;P2;SDS_P1;SDS_P2;PMS_P1;PMS_P2;Temp;Humidity;BMP_temperature;BMP_pressure;BME280_temperature;BME280_humidity;BME280_pressure;Samples;Min_cycle;Max_cycle;Signal;HPM_P1;HPM_P2
2023/02/19 00:00:36;;;;;;;;;;;17.70;53.30;;;;;;10119552;28;829;-80
2023/02/19 00:05:31;;;;;;;;;;;17.70;53.30;;;;;;10120605;28;905;-80
2023/02/19 00:10:26;;;;;;;;;;;17.70;53.30;;;;;;10120616;28;1966;-80
2023/02/19 00:15:22;;;;;;;;;;;17.70;53.20;;;;;;10119758;28;762;-80
2023/02/19 00:20:17;;;;;;;;;;;17.70;53.20;;;;;;10119570;28;910;-80
2023/02/19 00:25:12;;;;;;;;;;;17.70;53.10;;;;;;10119488;28;961;-80
2023/02/19 00:30:08;;;;;;;;;;;17.70;53.20;;;;;;10119524;28;799;-80
2023/02/19 00:35:03;;;;;;;;;;;17.70;53.30;;;;;;10118135;28;1906;-80
2023/02/19 00:39:59;;;;;;;;;;;17.70;53.30;;;;;;10119651;28;824;-80
2023/02/19 00:44:54;;;;;;;;;;;17.70;53.20;;;;;;10120788;28;1377;-80
2023/02/19 00:49:49;;;;;;;;;;;17.70;53.10;;;;;;10118864;28;965;-80
2023/02/19 00:54:45;;;;;;;;;;;17.70;53.10;;;;;;10118635;28;1980;-80
2023/02/19 00:59:40;;;;;;;;;;;17.70;53.10;;;;;;10117962;28;900;-80
2023/02/19 01:04:35;;;;;;;;;;;17.70;53.10;;;;;;10118514;28;782;-80
2023/02/19 01:09:31;;;;;;;;;;;17.70;53.20;;;;;;10118403;28;848;-81
2023/02/19 01:14:26;;;;;;;;;;;17.60;53.20;;;;;;10118336;28;1970;-80
2023/02/19 01:19:21;;;;;;;;;;;17.70;53.10;;;;;;10118202;28;1121;-80
2023/02/19 01:24:17;;;;;;;;;;;17.70;53.10;;;;;;10118588;28;783;-80
2023/02/19 01:29:12;;;;;;;;;;;17.70;53.00;;;;;;10118519;28;802;-80
2023/02/19 01:34:07;;;;;;;;;;;17.70;53.00;;;;;;10118321;28;1906;-80
2023/02/19 01:39:03;;;;;;;;;;;17.70;53.10;;;;;;10118244;28;833;-81
2023/02/19 01:43:59;;;;;;;;;;;17.70;53.10;;;;;;10118424;28;1356;-80
2023/02/19 01:48:54;;;;;;;;;;;17.70;53.10;;;;;;10120952;28;886;-80
2023/02/19 01:53:50;;;;;;;;;;;17.70;53.10;;;;;;10124039;28;1915;-80
2023/02/19 01:58:45;;;;;;;;;;;17.70;53.00;;;;;;10124431;28;937;-80
2023/02/19 02:03:40;;;;;;;;;;;17.70;53.10;;;;;;10123186;28;996;-80
2023/02/19 02:13:50;;;;;;;;;;;17.70;53.00;;;;;;10122850;28;1973;-80
2023/02/19 02:18:45;;;;;;;;;;;17.70;52.90;;;;;;10123939;28;873;-80
2023/02/19 02:23:41;;;;;;;;;;;17.70;53.00;;;;;;10123885;28;899;-80
2023/02/19 02:28:36;;;;;;;;;;;17.70;53.00;;;;;;10122490;28;1012;-80
2023/02/19 02:33:31;;;;;;;;;;;17.60;52.90;;;;;;10122827;28;1978;-80
2023/02/19 02:38:27;;;;;;;;;;;17.60;53.00;;;;;;10122115;28;1239;-80
2023/02/19 02:43:22;;;;;;;;;;;17.70;52.90;;;;;;10122282;28;1314;-80
2023/02/19 02:48:17;;;;;;;;;;;17.70;52.90;;;;;;10122967;28;931;-80
2023/02/19 02:58:27;;;;;;;;;;;17.70;53.00;;;;;;10121368;28;667;-80
2023/02/19 03:03:22;;;;;;;;;;;17.60;52.90;;;;;;10122696;28;814;-80
2023/02/19 03:08:18;;;;;;;;;;;17.70;53.00;;;;;;10122407;28;798;-80
2023/02/19 03:34:09;;;;;;;;;;;17.60;52.90;;;;;;10120466;28;1906;-80
2023/02/19 03:39:04;;;;;;;;;;;17.60;52.90;;;;;;10120859;28;783;-80
2023/02/19 03:44:00;;;;;;;;;;;17.60;52.90;;;;;;10121528;28;1435;-80
2023/02/19 03:48:58;;;;;;;;;;;17.60;52.90;;;;;;10121184;28;809;-80
2023/02/19 03:53:53;;;;;;;;;;;17.60;52.80;;;;;;10120350;28;1904;-80
2023/02/19 03:58:49;;;;;;;;;;;17.60;52.80;;;;;;10120816;28;924;-80
2023/02/19 04:03:44;;;;;;;;;;;17.60;52.80;;;;;;10120281;28;782;-80
2023/02/19 04:08:39;;;;;;;;;;;17.70;52.80;;;;;;10119388;28;940;-81
2023/02/19 04:13:35;;;;;;;;;;;17.70;52.80;;;;;;10118520;28;1965;-80
2023/02/19 04:18:30;;;;;;;;;;;17.60;52.80;;;;;;10119729;28;903;-80
2023/02/19 04:23:25;;;;;;;;;;;17.60;52.80;;;;;;10119556;28;869;-80
2023/02/19 04:28:21;;;;;;;;;;;17.60;52.70;;;;;;10120042;28;956;-80
2023/02/19 04:33:16;;;;;;;;;;;17.60;52.80;;;;;;10118611;28;1898;-80
2023/02/19 04:38:13;;;;;;;;;;;17.60;53.30;;;;;;10118609;28;901;-80
2023/02/19 04:43:08;;;;;;;;;;;17.60;52.70;;;;;;10119207;28;1179;-80
2023/02/19 04:48:03;;;;;;;;;;;17.60;52.70;;;;;;10118345;28;829;-80
2023/02/19 04:52:59;;;;;;;;;;;17.60;52.80;;;;;;10119516;28;1914;-80
2023/02/19 04:57:54;;;;;;;;;;;17.60;52.80;;;;;;10118224;28;912;-80
2023/02/19 05:02:49;;;;;;;;;;;17.60;52.70;;;;;;10118584;28;795;-80
2023/02/19 05:07:45;;;;;;;;;;;17.60;52.60;;;;;;10118440;28;881;-80
2023/02/19 05:12:40;;;;;;;;;;;17.60;52.60;;;;;;10119178;28;1907;-80
2023/02/19 05:17:36;;;;;;;;;;;17.60;52.70;;;;;;10118790;28;871;-80
2023/02/19 05:22:32;;;;;;;;;;;17.60;52.60;;;;;;10121791;28;932;-80
2023/02/19 05:27:27;;;;;;;;;;;17.60;52.60;;;;;;10125522;28;786;-80
2023/02/19 05:32:22;;;;;;;;;;;17.60;52.50;;;;;;10124671;28;1972;-80
2023/02/19 05:37:18;;;;;;;;;;;17.60;52.50;;;;;;10124715;28;799;-80
2023/02/19 05:42:14;;;;;;;;;;;17.70;52.50;;;;;;10124265;28;1323;-80
2023/02/19 05:47:09;;;;;;;;;;;17.70;52.50;;;;;;10125101;28;819;-80
2023/02/19 05:52:04;;;;;;;;;;;17.70;52.50;;;;;;10124097;28;1906;-80
2023/02/19 05:57:00;;;;;;;;;;;17.70;52.40;;;;;;10124070;28;976;-80
2023/02/19 06:01:57;;;;;;;;;;;17.70;52.40;;;;;;10123855;28;870;-80
2023/02/19 06:06:52;;;;;;;;;;;17.70;52.50;;;;;;10124362;28;786;-80
2023/02/19 06:11:47;;;;;;;;;;;17.70;52.40;;;;;;10124053;28;1962;-80
2023/02/19 06:16:43;;;;;;;;;;;17.70;52.40;;;;;;10123454;28;854;-80
2023/02/19 06:21:38;;;;;;;;;;;17.70;52.40;;;;;;10122737;28;874;-80
2023/02/19 06:26:33;;;;;;;;;;;17.70;52.40;;;;;;10122606;28;838;-79
2023/02/19 06:31:29;;;;;;;;;;;17.70;52.40;;;;;;10123798;28;1959;-79
2023/02/19 06:36:24;;;;;;;;;;;17.70;52.30;;;;;;10122185;28;793;-81
2023/02/19 06:41:20;;;;;;;;;;;17.70;52.30;;;;;;10122668;28;1156;-79
2023/02/19 06:46:15;;;;;;;;;;;17.70;52.30;;;;;;10123135;28;786;-79
2023/02/19 06:51:10;;;;;;;;;;;17.70;52.30;;;;;;10123332;28;1903;-79
2023/02/19 06:56:06;;;;;;;;;;;17.70;52.30;;;;;;10122267;28;864;-76
2023/02/19 07:01:01;;;;;;;;;;;17.80;52.40;;;;;;10122130;28;794;-79
2023/02/19 07:05:56;;;;;;;;;;;17.80;52.40;;;;;;10121293;28;949;-78
2023/02/19 07:10:52;;;;;;;;;;;17.70;52.30;;;;;;10121752;28;1961;-79
2023/02/19 07:15:47;;;;;;;;;;;17.70;52.30;;;;;;10122207;28;879;-79
2023/02/19 07:20:43;;;;;;;;;;;17.70;52.30;;;;;;10121471;28;802;-79
2023/02/19 07:25:38;;;;;;;;;;;17.70;52.30;;;;;;10121913;28;798;-79
2023/02/19 07:30:33;;;;;;;;;;;17.80;52.40;;;;;;10121019;28;972;-79
2023/02/19 07:35:29;;;;;;;;;;;17.80;52.30;;;;;;10121554;28;1903;-79
2023/02/19 07:40:24;;;;;;;;;;;17.80;52.40;;;;;;10121194;28;973;-79
2023/02/19 07:45:19;;;;;;;;;;;17.80;52.30;;;;;;10120084;28;1188;-81
2023/02/19 07:50:15;;;;;;;;;;;17.80;52.30;;;;;;10120596;28;851;-79
2023/02/19 07:55:10;;;;;;;;;;;17.80;52.30;;;;;;10120468;28;1906;-81
2023/02/19 08:00:05;;;;;;;;;;;17.80;52.30;;;;;;10120292;28;889;-79
2023/02/19 08:05:01;;;;;;;;;;;17.80;52.20;;;;;;10120144;28;780;-79
2023/02/19 08:13:18;;;;;;;;;;;17.80;52.30;;;;;;10120155;28;849;-79
2023/02/19 08:15:11;;;;;;;;;;;17.70;52.20;;;;;;10119144;28;1915;-78
2023/02/19 08:20:07;;;;;;;;;;;17.80;52.30;;;;;;10119348;28;1050;-78
2023/02/19 08:25:02;;;;;;;;;;;17.80;52.20;;;;;;10119071;28;880;-79
2023/02/19 08:29:58;;;;;;;;;;;17.80;52.30;;;;;;10119969;28;853;-79
2023/02/19 08:34:53;;;;;;;;;;;17.90;52.30;;;;;;10119846;28;1961;-84
2023/02/19 08:39:48;;;;;;;;;;;18.00;52.70;;;;;;10118623;28;788;-77
2023/02/19 08:44:44;;;;;;;;;;;18.10;53.20;;;;;;10118234;28;1336;-83
2023/02/19 08:49:39;;;;;;;;;;;18.10;53.60;;;;;;10119679;28;868;-73
2023/02/19 08:54:34;;;;;;;;;;;18.20;53.90;;;;;;10118745;28;1979;-75
2023/02/19 08:59:30;;;;;;;;;;;18.10;54.00;;;;;;10130285;28;885;-81
2023/02/19 09:04:25;;;;;;;;;;;18.10;53.90;;;;;;10132311;28;810;-83
2023/02/19 09:09:20;;;;;;;;;;;18.10;53.80;;;;;;10132042;28;926;-82
2023/02/19 09:14:16;;;;;;;;;;;18.20;54.00;;;;;;10131385;28;1907;-80
2023/02/19 09:19:11;;;;;;;;;;;18.20;54.10;;;;;;10131509;28;837;-81
2023/02/19 09:24:06;;;;;;;;;;;18.10;54.00;;;;;;10131841;28;967;-81
2023/02/19 09:29:02;;;;;;;;;;;18.20;54.10;;;;;;10131660;28;860;-79
2023/02/19 09:33:57;;;;;;;;;;;18.20;54.30;;;;;;10130904;28;1903;-79
2023/02/19 09:38:53;;;;;;;;;;;18.20;54.50;;;;;;10130838;28;758;-78
2023/02/19 09:43:48;;;;;;;;;;;18.20;54.40;;;;;;10131355;28;1318;-80
2023/02/19 09:48:43;;;;;;;;;;;18.20;54.40;;;;;;10130796;28;968;-80
2023/02/19 09:53:39;;;;;;;;;;;18.20;54.20;;;;;;10128907;28;1985;-80
2023/02/19 09:58:34;;;;;;;;;;;18.20;54.30;;;;;;10129784;28;916;-80
2023/02/19 10:03:32;;;;;;;;;;;18.20;54.20;;;;;;10128750;28;1542;-81
2023/02/19 10:08:27;;;;;;;;;;;18.20;54.00;;;;;;10086744;28;927;-80
2023/02/19 10:13:23;;;;;;;;;;;18.20;54.00;;;;;;10084881;28;1903;-80
2023/02/19 10:18:18;;;;;;;;;;;18.30;54.10;;;;;;10084321;28;851;-79
2023/02/19 10:23:14;;;;;;;;;;;18.20;54.00;;;;;;10084104;28;860;-80
2023/02/19 10:28:09;;;;;;;;;;;18.20;54.10;;;;;;10083301;28;768;-80
2023/02/19 10:33:04;;;;;;;;;;;18.30;54.10;;;;;;10084032;28;1903;-80
2023/02/19 10:38:00;;;;;;;;;;;18.30;54.10;;;;;;10083109;28;945;-80
2023/02/19 10:42:55;;;;;;;;;;;18.30;54.00;;;;;;10083023;28;1435;-80
2023/02/19 10:47:51;;;;;;;;;;;18.30;53.90;;;;;;10082810;28;885;-80
2023/02/19 10:52:46;;;;;;;;;;;18.30;53.90;;;;;;10083170;28;1914;-80
2023/02/19 10:57:42;;;;;;;;;;;18.30;53.80;;;;;;10082903;28;865;-80
2023/02/19 11:02:37;;;;;;;;;;;18.30;53.80;;;;;;10082784;28;776;-80
2023/02/19 11:07:32;;;;;;;;;;;18.20;53.70;;;;;;10082284;28;881;-80
2023/02/19 11:12:28;;;;;;;;;;;18.20;53.90;;;;;;10081922;28;1964;-80
2023/02/19 11:17:24;;;;;;;;;;;18.20;53.70;;;;;;10081939;28;928;-79
2023/02/19 11:22:19;;;;;;;;;;;18.30;53.80;;;;;;10082412;28;879;-80
2023/02/19 11:27:15;;;;;;;;;;;18.30;53.80;;;;;;10118817;28;1520;-79
2023/02/19 11:32:10;;;;;;;;;;;18.20;53.90;;;;;;10120805;28;1898;-80
2023/02/19 11:37:05;;;;;;;;;;;18.30;53.80;;;;;;10120896;28;742;-80
2023/02/19 11:42:01;;;;;;;;;;;18.20;53.80;;;;;;10120411;28;1279;-71
2023/02/19 11:46:56;;;;;;;;;;;18.20;53.80;;;;;;10120677;28;793;-80
2023/02/19 11:51:52;;;;;;;;;;;18.20;53.80;;;;;;10120208;28;1910;-80
2023/02/19 11:56:47;;;;;;;;;;;18.20;53.90;;;;;;10120136;28;840;-77
2023/02/19 12:01:42;;;;;;;;;;;18.20;53.80;;;;;;10120079;28;822;-79
2023/02/19 12:06:38;;;;;;;;;;;18.20;53.70;;;;;;10119877;28;838;-80
2023/02/19 12:11:33;;;;;;;;;;;18.20;53.50;;;;;;10119316;28;1907;-80
2023/02/19 12:16:28;;;;;;;;;;;18.20;53.50;;;;;;10119519;28;1134;-79
2023/02/19 12:21:24;;;;;;;;;;;18.10;53.50;;;;;;10119496;28;933;-79
2023/02/19 12:26:19;;;;;;;;;;;18.20;53.60;;;;;;10119510;28;843;-80
2023/02/19 12:31:15;;;;;;;;;;;18.30;53.70;;;;;;10117855;28;1902;-80
2023/02/19 12:36:10;;;;;;;;;;;18.20;53.70;;;;;;10118444;28;896;-79
2023/02/19 12:41:09;;;;;;;;;;;18.20;53.80;;;;;;10234020;28;1196;-79
2023/02/19 12:46:04;;;;;;;;;;;18.30;53.80;;;;;;10285062;28;855;-80
2023/02/19 12:50:59;;;;;;;;;;;18.30;53.90;;;;;;10283723;28;1969;-79
2023/02/19 12:55:55;;;;;;;;;;;18.30;53.90;;;;;;10284376;28;943;-80
2023/02/19 13:00:50;;;;;;;;;;;18.30;54.00;;;;;;10285097;28;960;-79
2023/02/19 13:05:46;;;;;;;;;;;18.30;53.90;;;;;;10284189;28;759;-80
2023/02/19 13:10:41;;;;;;;;;;;18.30;53.80;;;;;;10284137;28;869;-80
2023/02/19 13:15:36;;;;;;;;;;;18.30;53.90;;;;;;10283345;28;1894;-80
2023/02/19 13:20:32;;;;;;;;;;;18.30;53.80;;;;;;10283894;28;928;-80
2023/02/19 13:25:27;;;;;;;;;;;18.20;53.80;;;;;;10299955;28;785;-80
2023/02/19 13:30:22;;;;;;;;;;;18.20;53.90;;;;;;10284580;28;916;-80
2023/02/19 13:35:18;;;;;;;;;;;18.30;53.90;;;;;;10284398;28;1913;-80
2023/02/19 13:40:13;;;;;;;;;;;18.30;53.90;;;;;;10283622;28;1344;-80
2023/02/19 13:45:08;;;;;;;;;;;18.20;53.90;;;;;;10288231;28;1188;-80
2023/02/19 13:50:04;;;;;;;;;;;18.20;53.90;;;;;;10291948;28;809;-80
2023/02/19 13:54:59;;;;;;;;;;;18.20;53.90;;;;;;10291655;28;1907;-80
2023/02/19 13:59:55;;;;;;;;;;;18.20;53.80;;;;;;10290963;28;904;-80
2023/02/19 14:04:50;;;;;;;;;;;18.20;53.80;;;;;;10290159;28;908;-80
2023/02/19 14:09:46;;;;;;;;;;;18.20;53.70;;;;;;10291148;28;809;-80
2023/02/19 14:14:41;;;;;;;;;;;18.20;53.60;;;;;;10290222;28;1910;-80
2023/02/19 14:19:36;;;;;;;;;;;18.20;53.50;;;;;;10290232;28;854;-80
2023/02/19 14:24:32;;;;;;;;;;;18.30;53.50;;;;;;10289948;28;857;-80
2023/02/19 14:29:27;;;;;;;;;;;18.30;53.40;;;;;;10290430;28;895;-80
2023/02/19 14:34:25;;;;;;;;;;;18.30;53.40;;;;;;10290594;28;1910;-80
2023/02/19 14:39:20;;;;;;;;;;;18.30;53.50;;;;;;10289532;28;837;-80
2023/02/19 14:44:16;;;;;;;;;;;18.30;53.50;;;;;;10290206;28;1265;-81
2023/02/19 14:49:12;;;;;;;;;;;18.30;53.50;;;;;;10288379;28;1147;-87
2023/02/19 14:54:07;;;;;;;;;;;18.20;53.50;;;;;;10288554;28;1985;-87
2023/02/19 14:59:03;;;;;;;;;;;18.10;53.70;;;;;;10288648;28;785;-87
2023/02/19 15:03:58;;;;;;;;;;;17.90;53.90;;;;;;10287959;28;1031;-84
2023/02/19 15:08:54;;;;;;;;;;;17.90;53.90;;;;;;10288295;28;879;-82
2023/02/19 15:13:49;;;;;;;;;;;17.90;53.90;;;;;;10288006;28;1969;-82
2023/02/19 15:18:45;;;;;;;;;;;17.90;53.80;;;;;;10288784;28;920;-82
2023/02/19 15:23:42;;;;;;;;;;;17.90;53.80;;;;;;10288421;28;836;-82
2023/02/19 15:28:37;;;;;;;;;;;17.90;53.80;;;;;;10288107;28;809;-82
2023/02/19 15:33:32;;;;;;;;;;;17.90;53.80;;;;;;10287897;28;1902;-83
2023/02/19 15:38:28;;;;;;;;;;;17.80;53.70;;;;;;10287138;28;1038;-82
2023/02/19 15:43:23;;;;;;;;;;;17.80;53.70;;;;;;10287807;28;1562;-83
2023/02/19 15:48:19;;;;;;;;;;;17.90;53.70;;;;;;10286798;28;890;-79
2023/02/19 15:53:14;;;;;;;;;;;17.80;53.60;;;;;;10286553;28;1967;-79
2023/02/19 15:58:09;;;;;;;;;;;17.80;53.60;;;;;;10286346;28;953;-79
2023/02/19 16:03:05;;;;;;;;;;;17.80;53.60;;;;;;10286205;28;766;-82
2023/02/19 16:08:00;;;;;;;;;;;17.80;53.50;;;;;;10285783;28;836;-83
2023/02/19 16:12:56;;;;;;;;;;;17.80;53.50;;;;;;10286368;28;1952;-82
2023/02/19 16:17:51;;;;;;;;;;;17.80;53.50;;;;;;10285654;28;1108;-77
2023/02/19 16:22:46;;;;;;;;;;;18.00;53.70;;;;;;10129274;28;1550;-77
2023/02/19 16:27:42;;;;;;;;;;;18.20;53.70;;;;;;10081046;28;849;-77
2023/02/19 16:32:37;;;;;;;;;;;18.30;53.70;;;;;;10079068;28;1962;-77
2023/02/19 16:37:32;;;;;;;;;;;18.30;53.60;;;;;;10080231;28;874;-75
2023/02/19 16:42:28;;;;;;;;;;;18.30;53.50;;;;;;10078726;28;1169;-76
2023/02/19 16:47:23;;;;;;;;;;;18.30;53.60;;;;;;10079826;28;771;-79
2023/02/19 16:52:19;;;;;;;;;;;18.30;53.40;;;;;;10088025;28;1964;-79
2023/02/19 16:57:14;;;;;;;;;;;18.30;53.60;;;;;;10284613;28;813;-76
2023/02/19 17:02:10;;;;;;;;;;;18.30;53.70;;;;;;10284560;28;806;-79
2023/02/19 17:07:05;;;;;;;;;;;18.30;53.70;;;;;;10285088;28;763;-79
2023/02/19 17:12:00;;;;;;;;;;;18.30;53.80;;;;;;10284827;28;1899;-79
2023/02/19 17:16:56;;;;;;;;;;;18.20;53.80;;;;;;10285468;28;854;-78
2023/02/19 17:21:51;;;;;;;;;;;18.20;54.60;;;;;;10293273;28;810;-79
2023/02/19 17:26:46;;;;;;;;;;;18.30;54.20;;;;;;10291685;28;833;-78
2023/02/19 17:31:42;;;;;;;;;;;18.30;54.30;;;;;;10291979;28;1897;-79
2023/02/19 17:36:37;;;;;;;;;;;18.20;54.10;;;;;;10291921;28;770;-79
2023/02/19 17:41:33;;;;;;;;;;;18.20;54.10;;;;;;10292460;28;1333;-78
2023/02/19 17:46:28;;;;;;;;;;;18.30;54.10;;;;;;10292180;28;1046;-78
2023/02/19 17:51:23;;;;;;;;;;;18.30;54.00;;;;;;10291890;28;1906;-78
2023/02/19 17:56:19;;;;;;;;;;;18.30;53.90;;;;;;10291190;28;987;-78
2023/02/19 18:01:14;;;;;;;;;;;18.30;54.20;;;;;;10290949;28;908;-79
2023/02/19 18:06:10;;;;;;;;;;;18.30;54.30;;;;;;10290838;28;782;-79
2023/02/19 18:11:05;;;;;;;;;;;18.20;54.50;;;;;;10290604;28;1902;-78
2023/02/19 18:16:00;;;;;;;;;;;18.30;54.50;;;;;;10291109;28;857;-79
2023/02/19 18:20:56;;;;;;;;;;;18.20;54.60;;;;;;10290491;28;771;-78
2023/02/19 18:25:51;;;;;;;;;;;18.20;54.60;;;;;;10289841;28;876;-78
2023/02/19 18:30:46;;;;;;;;;;;18.20;54.40;;;;;;10289443;28;771;-78
2023/02/19 18:35:42;;;;;;;;;;;18.20;54.40;;;;;;10290515;28;1898;-79
2023/02/19 18:40:37;;;;;;;;;;;18.20;54.30;;;;;;10289644;28;1279;-78
2023/02/19 18:45:35;;;;;;;;;;;18.20;54.40;;;;;;10289619;28;817;-76
2023/02/19 18:50:32;;;;;;;;;;;18.20;54.20;;;;;;10289312;28;786;-76
2023/02/19 18:55:27;;;;;;;;;;;18.20;54.00;;;;;;10288994;28;1969;-76
2023/02/19 19:00:25;;;;;;;;;;;18.30;54.10;;;;;;10289036;28;799;-76
2023/02/19 19:05:21;;;;;;;;;;;18.20;53.90;;;;;;10289376;28;956;-76
2023/02/19 19:10:17;;;;;;;;;;;18.30;54.60;;;;;;10288654;28;873;-76
2023/02/19 19:15:12;;;;;;;;;;;18.30;54.00;;;;;;10288306;28;1965;-76
2023/02/19 19:20:07;;;;;;;;;;;18.20;53.80;;;;;;10288217;28;761;-76
2023/02/19 19:25:03;;;;;;;;;;;18.30;53.80;;;;;;10288093;28;769;-76
2023/02/19 19:29:58;;;;;;;;;;;18.30;53.70;;;;;;10287297;28;884;-76
2023/02/19 19:34:53;;;;;;;;;;;18.20;53.60;;;;;;10288324;28;1957;-76
2023/02/19 19:39:49;;;;;;;;;;;18.30;53.50;;;;;;10287743;28;893;-76
2023/02/19 19:44:44;;;;;;;;;;;18.20;53.40;;;;;;10287998;28;1165;-76
2023/02/19 19:49:40;;;;;;;;;;;18.30;53.30;;;;;;10286892;28;746;-76
2023/02/19 19:54:35;;;;;;;;;;;18.30;53.30;;;;;;10286674;28;1914;-76
2023/02/19 19:59:30;;;;;;;;;;;18.20;53.40;;;;;;10287187;28;950;-76
2023/02/19 20:04:26;;;;;;;;;;;18.20;53.50;;;;;;10286341;28;900;-76
2023/02/19 20:09:24;;;;;;;;;;;18.20;53.50;;;;;;10286188;28;727;-76
2023/02/19 20:14:19;;;;;;;;;;;18.20;54.10;;;;;;10286557;28;1906;-76
2023/02/19 20:19:15;;;;;;;;;;;18.20;53.50;;;;;;10286510;28;802;-76
2023/02/19 20:24:10;;;;;;;;;;;18.30;53.60;;;;;;10286291;28;782;-76
2023/02/19 20:29:06;;;;;;;;;;;18.30;53.50;;;;;;10286087;28;793;-76
2023/02/19 20:34:01;;;;;;;;;;;18.30;53.40;;;;;;10285197;28;1967;-76
2023/02/19 20:38:57;;;;;;;;;;;18.30;53.30;;;;;;10285304;28;813;-76
2023/02/19 20:43:52;;;;;;;;;;;18.30;53.40;;;;;;10285634;28;1924;-76
2023/02/19 20:48:47;;;;;;;;;;;18.20;53.40;;;;;;10285077;28;900;-76
2023/02/19 20:53:43;;;;;;;;;;;18.20;53.30;;;;;;10284897;28;1971;-76
2023/02/19 20:58:38;;;;;;;;;;;18.20;53.40;;;;;;10285400;28;873;-76
2023/02/19 21:03:34;;;;;;;;;;;18.20;53.30;;;;;;10285367;28;864;-76
2023/02/19 21:08:29;;;;;;;;;;;18.20;53.40;;;;;;10285224;28;827;-76
2023/02/19 21:13:24;;;;;;;;;;;18.20;53.30;;;;;;10285053;28;1906;-76
2023/02/19 21:18:20;;;;;;;;;;;18.20;53.30;;;;;;10285150;28;832;-76
2023/02/19 21:23:15;;;;;;;;;;;18.20;53.40;;;;;;10283854;28;933;-76
2023/02/19 21:28:11;;;;;;;;;;;18.10;53.30;;;;;;10284235;28;860;-77
2023/02/19 21:33:06;;;;;;;;;;;18.10;53.30;;;;;;10284333;28;1969;-76
2023/02/19 21:38:02;;;;;;;;;;;18.10;53.20;;;;;;10283497;28;845;-76
2023/02/19 21:42:57;;;;;;;;;;;18.10;53.20;;;;;;10283851;28;1307;-76
2023/02/19 21:47:53;;;;;;;;;;;18.10;53.40;;;;;;10284565;28;944;-76
2023/02/19 21:52:49;;;;;;;;;;;18.10;53.40;;;;;;10283761;28;1922;-76
2023/02/19 21:57:44;;;;;;;;;;;18.10;53.30;;;;;;10284245;28;837;-76
2023/02/19 22:02:39;;;;;;;;;;;18.10;53.30;;;;;;10284168;28;985;-76
2023/02/19 22:07:35;;;;;;;;;;;18.10;53.10;;;;;;10289992;28;835;-76
2023/02/19 22:12:30;;;;;;;;;;;18.10;53.20;;;;;;10291125;28;1969;-76
2023/02/19 22:17:26;;;;;;;;;;;18.00;53.20;;;;;;10291157;28;806;-73
2023/02/19 22:22:21;;;;;;;;;;;18.00;53.30;;;;;;10290210;28;822;-90
2023/02/19 22:27:16;;;;;;;;;;;18.00;53.20;;;;;;10290694;28;841;-74
2023/02/19 22:32:12;;;;;;;;;;;17.90;53.20;;;;;;10289696;28;1919;-74
2023/02/19 22:37:07;;;;;;;;;;;17.90;53.50;;;;;;10289884;28;894;-74
2023/02/19 22:42:02;;;;;;;;;;;17.80;53.40;;;;;;10290017;28;1317;-74
2023/02/19 22:46:58;;;;;;;;;;;17.80;53.30;;;;;;10288686;28;813;-74
2023/02/19 22:51:53;;;;;;;;;;;17.70;53.20;;;;;;10289914;28;1914;-74
2023/02/19 22:56:49;;;;;;;;;;;17.80;53.20;;;;;;10288901;28;789;-74
2023/02/19 23:01:44;;;;;;;;;;;17.80;53.20;;;;;;10288958;28;770;-74
2023/02/19 23:06:40;;;;;;;;;;;17.80;53.00;;;;;;10289281;28;876;-74
2023/02/19 23:11:36;;;;;;;;;;;17.80;52.90;;;;;;10288614;28;1977;-74
2023/02/19 23:16:34;;;;;;;;;;;17.70;52.90;;;;;;10288285;28;939;-74
2023/02/19 23:21:29;;;;;;;;;;;17.70;52.80;;;;;;10287904;28;920;-74
2023/02/19 23:26:25;;;;;;;;;;;17.70;52.80;;;;;;10287769;28;801;-74
2023/02/19 23:31:20;;;;;;;;;;;17.70;52.80;;;;;;10286900;28;1910;-74
2023/02/19 23:36:16;;;;;;;;;;;17.80;52.60;;;;;;10287403;28;813;-74
2023/02/19 23:41:11;;;;;;;;;;;17.70;52.60;;;;;;10286863;28;1472;-75
2023/02/19 23:46:06;;;;;;;;;;;17.70;52.80;;;;;;10286462;28;964;-74
2023/02/19 23:51:02;;;;;;;;;;;17.70;52.70;;;;;;10286855;28;888;-74
2023/02/19 23:55:57;;;;;;;;;;;17.70;52.30;;;;;;10286794;28;1976;-74
